Time;durP1;ratioP1;P1;durP2;ratioP2;P2;SDS_P1;SDS_P2;PMS_P1;PMS_P2;Temp;Humidity;BMP_temperature;BMP_pressure;BME280_temperature;BME280_humidity;BME280_pressure;Samples;Min_cycle;Max_cycle;Signal;HPM_P1;HPM_P2
2023/03/31 00:01:48;;;;;;;16.70;6.82;;;12.40;99.80;;;;;;5014392;28;20044;-67
2023/03/31 00:04:13;;;;;;;12.25;5.80;;;12.40;99.70;;;;;;5014508;28;20045;-67
2023/03/31 00:06:41;;;;;;;10.95;6.43;;;12.40;99.70;;;;;;5014575;28;20124;-67
2023/03/31 00:09:12;;;;;;;9.90;5.80;;;12.50;99.70;;;;;;5012969;28;20022;-68
2023/03/31 00:11:39;;;;;;;16.30;6.93;;;12.50;99.70;;;;;;5013165;28;20022;-67
2023/03/31 00:14:06;;;;;;;17.88;6.68;;;12.40;99.60;;;;;;5014287;28;20022;-67
2023/03/31 00:16:37;;;;;;;9.50;5.72;;;12.40;99.60;;;;;;5014459;28;20026;-67
2023/03/31 00:19:04;;;;;;;17.13;6.25;;;12.40;99.60;;;;;;5014427;28;20038;-67
2023/03/31 00:21:33;;;;;;;14.85;6.10;;;12.40;99.50;;;;;;5014386;28;20026;-67
2023/03/31 00:24:01;;;;;;;15.77;6.70;;;12.50;99.50;;;;;;5014509;28;20041;-67
2023/03/31 00:26:28;;;;;;;11.82;5.72;;;12.40;99.50;;;;;;5014680;28;20030;-67
2023/03/31 00:28:54;;;;;;;12.18;5.35;;;12.40;99.40;;;;;;5013154;28;20057;-67
2023/03/31 00:31:21;;;;;;;15.38;5.50;;;12.40;99.30;;;;;;5014058;28;20025;-67
2023/03/31 00:33:48;;;;;;;11.05;4.88;;;12.40;99.30;;;;;;5014024;28;20026;-67
2023/03/31 00:36:20;;;;;;;17.15;5.75;;;12.40;99.30;;;;;;5014236;28;20037;-67
2023/03/31 00:38:47;;;;;;;15.23;5.10;;;12.40;99.30;;;;;;5014312;28;20026;-67
2023/03/31 00:41:14;;;;;;;13.63;5.30;;;12.40;99.20;;;;;;5014153;28;20481;-67
2023/03/31 00:43:41;;;;;;;10.77;5.07;;;12.40;99.20;;;;;;5013922;28;20029;-67
2023/03/31 00:46:29;;;;;;;10.32;4.85;;;12.40;99.20;;;;;;5013995;28;20026;-67
2023/03/31 00:48:57;;;;;;;10.90;4.43;;;12.40;99.20;;;;;;5013626;28;20029;-67
2023/03/31 00:51:27;;;;;;;8.32;5.00;;;12.40;99.20;;;;;;5013814;28;20125;-67
2023/03/31 00:53:58;;;;;;;10.48;4.63;;;12.40;99.10;;;;;;5013884;28;20052;-67
2023/03/31 00:56:27;;;;;;;16.35;5.78;;;12.40;99.20;;;;;;5013986;28;20080;-67
2023/03/31 00:58:56;;;;;;;11.02;5.18;;;12.40;99.40;;;;;;5011527;28;20034;-67
2023/03/31 01:01:26;;;;;;;12.05;5.35;;;12.40;99.20;;;;;;5010893;28;20636;-67
2023/03/31 01:03:52;;;;;;;14.50;5.88;;;12.40;99.20;;;;;;5011048;28;20383;-67
2023/03/31 01:06:18;;;;;;;15.55;5.75;;;12.40;99.20;;;;;;5013612;28;20378;-67
2023/03/31 01:08:47;;;;;;;12.20;5.53;;;12.40;99.20;;;;;;5013362;28;20026;-67
2023/03/31 01:11:16;;;;;;;12.40;5.10;;;12.40;99.20;;;;;;5013418;28;20018;-67
2023/03/31 01:13:42;;;;;;;14.00;4.53;;;12.40;99.20;;;;;;5013476;28;20018;-67
2023/03/31 01:16:08;;;;;;;9.80;4.20;;;12.40;99.20;;;;;;5013575;28;20029;-67
2023/03/31 01:18:34;;;;;;;9.80;4.40;;;12.40;99.10;;;;;;5013136;28;20125;-67
2023/03/31 01:21:09;;;;;;;13.45;5.35;;;12.40;99.00;;;;;;5013021;28;20478;-66
2023/03/31 01:23:55;;;;;;;9.52;5.15;;;12.40;99.00;;;;;;5013074;28;20048;-67
2023/03/31 01:26:54;;;;;;;12.13;5.93;;;12.40;99.30;;;;;;5013225;28;20104;-67
2023/03/31 01:29:29;;;;;;;14.32;5.70;;;12.40;99.10;;;;;;5012900;28;20382;-67
2023/03/31 01:32:12;;;;;;;9.90;5.30;;;12.40;99.10;;;;;;5013308;28;20025;-67
2023/03/31 01:34:44;;;;;;;11.40;5.40;;;12.40;99.10;;;;;;5013390;28;20026;-67
2023/03/31 01:37:27;;;;;;;13.98;6.57;;;12.40;99.10;;;;;;5012898;28;20026;-67
2023/03/31 01:40:08;;;;;;;12.93;6.18;;;12.40;99.10;;;;;;5012826;28;20101;-67
2023/03/31 01:42:55;;;;;;;13.23;5.88;;;12.40;99.10;;;;;;5012990;28;20041;-67
2023/03/31 01:45:40;;;;;;;12.85;5.32;;;12.40;99.10;;;;;;5013183;28;20057;-67
2023/03/31 01:48:16;;;;;;;12.52;4.93;;;12.40;99.20;;;;;;5013030;28;20045;-67
2023/03/31 01:50:50;;;;;;;10.13;5.03;;;12.40;99.10;;;;;;5012753;28;20069;-67
2023/03/31 01:53:27;;;;;;;10.35;5.43;;;12.40;99.10;;;;;;5013258;28;20107;-68
2023/03/31 01:56:07;;;;;;;13.88;5.47;;;12.40;99.10;;;;;;5012957;28;20508;-67
2023/03/31 01:58:39;;;;;;;11.02;5.80;;;12.40;99.10;;;;;;5012991;28;20033;-67
2023/03/31 02:01:28;;;;;;;13.75;5.25;;;12.40;99.10;;;;;;5012936;28;20032;-67
2023/03/31 02:04:12;;;;;;;9.95;4.75;;;12.40;99.10;;;;;;5012967;28;20042;-67
2023/03/31 02:06:42;;;;;;;16.98;5.15;;;12.40;99.20;;;;;;5012837;28;20030;-67
2023/03/31 02:09:14;;;;;;;13.70;5.57;;;12.40;99.20;;;;;;5012731;28;20100;-67
2023/03/31 02:11:41;;;;;;;11.25;4.80;;;12.40;99.10;;;;;;5012809;28;20022;-67
2023/03/31 02:14:11;;;;;;;9.07;4.32;;;12.40;99.10;;;;;;5012640;28;20029;-67
2023/03/31 02:16:40;;;;;;;18.02;4.65;;;12.40;99.00;;;;;;5012533;28;20101;-67
2023/03/31 02:19:09;;;;;;;14.93;5.32;;;12.40;98.90;;;;;;5012736;28;20029;-67
2023/03/31 02:21:38;;;;;;;9.13;3.95;;;12.40;98.90;;;;;;5012599;28;20030;-67
2023/03/31 02:24:09;;;;;;;9.13;4.45;;;12.40;98.80;;;;;;5012931;28;20034;-66
2023/03/31 02:26:40;;;;;;;11.75;4.40;;;12.40;98.80;;;;;;5012490;28;20021;-66
2023/03/31 02:29:06;;;;;;;12.20;4.25;;;12.40;98.90;;;;;;5012608;28;20076;-67
2023/03/31 02:31:51;;;;;;;10.13;4.57;;;12.40;98.90;;;;;;5012606;28;20022;-67
2023/03/31 02:34:17;;;;;;;12.55;4.80;;;12.40;98.90;;;;;;5012532;28;20037;-67
2023/03/31 02:36:47;;;;;;;12.20;4.90;;;12.40;98.90;;;;;;5012722;28;20108;-67
2023/03/31 02:39:17;;;;;;;11.75;4.85;;;12.40;98.80;;;;;;5012894;28;20030;-67
2023/03/31 02:41:43;;;;;;;11.60;5.43;;;12.40;98.80;;;;;;5012709;28;20109;-67
2023/03/31 02:44:10;;;;;;;19.70;6.28;;;12.40;98.80;;;;;;5012497;28;20034;-67
2023/03/31 02:46:37;;;;;;;13.43;5.38;;;12.40;98.80;;;;;;5012048;28;20049;-67
2023/03/31 02:49:06;;;;;;;11.68;5.35;;;12.40;98.80;;;;;;5012059;28;20080;-67
2023/03/31 02:51:51;;;;;;;11.57;5.03;;;12.40;98.70;;;;;;5012974;28;20129;-67
2023/03/31 02:54:22;;;;;;;8.80;4.68;;;12.40;98.70;;;;;;5015852;28;20030;-67
2023/03/31 02:57:12;;;;;;;10.93;4.53;;;12.40;98.80;;;;;;5016071;28;20033;-66
2023/03/31 03:00:08;;;;;;;9.10;4.40;;;12.40;98.80;;;;;;5016203;28;20088;-67
2023/03/31 03:02:44;;;;;;;11.60;4.68;;;12.40;98.80;;;;;;5015780;28;20069;-67
2023/03/31 03:05:33;;;;;;;10.75;4.35;;;12.40;98.70;;;;;;5015954;28;20022;-66
2023/03/31 03:08:32;;;;;;;9.38;4.40;;;12.40;98.70;;;;;;5016073;28;20086;-67
2023/03/31 03:11:09;;;;;;;11.55;4.40;;;12.40;98.60;;;;;;5015894;28;20080;-67
2023/03/31 03:13:54;;;;;;;11.70;4.13;;;12.40;98.60;;;;;;5015615;28;20025;-66
2023/03/31 03:16:32;;;;;;;12.75;4.13;;;12.40;98.50;;;;;;5015590;28;20423;-66
2023/03/31 03:19:04;;;;;;;10.88;4.82;;;12.40;98.50;;;;;;5015705;28;20030;-67
2023/03/31 03:21:31;;;;;;;8.60;4.32;;;12.30;98.40;;;;;;5015540;28;20072;-67
2023/03/31 03:23:57;;;;;;;8.18;4.25;;;12.30;98.40;;;;;;5015561;28;20057;-67
2023/03/31 03:26:26;;;;;;;16.90;5.05;;;12.30;98.40;;;;;;5015411;28;20533;-67
2023/03/31 03:28:53;;;;;;;11.00;4.50;;;12.30;98.30;;;;;;5015506;28;20022;-67
2023/03/31 03:31:22;;;;;;;10.23;4.55;;;12.30;98.30;;;;;;5015247;28;20033;-66
2023/03/31 03:33:49;;;;;;;10.30;4.90;;;12.30;98.30;;;;;;5015557;28;20049;-67
2023/03/31 03:36:15;;;;;;;9.02;4.55;;;12.30;98.30;;;;;;5015309;28;20038;-67
2023/03/31 03:38:41;;;;;;;11.82;4.93;;;12.30;98.30;;;;;;5015007;28;20065;-67
2023/03/31 03:41:07;;;;;;;13.45;4.90;;;12.30;98.30;;;;;;5015375;28;20057;-67
2023/03/31 03:43:32;;;;;;;8.68;4.38;;;12.40;98.30;;;;;;5015164;28;20037;-67
2023/03/31 03:45:58;;;;;;;9.30;4.55;;;12.30;98.30;;;;;;5014863;28;20036;-67
2023/03/31 03:48:25;;;;;;;11.10;4.88;;;12.30;98.20;;;;;;5014856;28;20034;-67
2023/03/31 03:50:52;;;;;;;8.52;4.53;;;12.30;98.20;;;;;;5014700;28;20095;-67
2023/03/31 03:53:17;;;;;;;11.95;5.18;;;12.30;98.20;;;;;;5014548;28;20026;-67
2023/03/31 03:55:44;;;;;;;11.65;4.32;;;12.40;98.20;;;;;;5014865;28;20025;-66
2023/03/31 03:58:10;;;;;;;9.82;4.45;;;12.30;98.20;;;;;;5015258;28;20157;-67
2023/03/31 04:00:36;;;;;;;8.23;4.13;;;12.30;98.20;;;;;;5015033;28;20072;-67
2023/03/31 04:03:02;;;;;;;10.30;4.10;;;12.30;98.20;;;;;;5014723;28;20108;-67
2023/03/31 04:05:27;;;;;;;10.10;4.13;;;12.30;98.10;;;;;;5014749;28;20030;-67
2023/03/31 04:07:53;;;;;;;12.15;4.78;;;12.30;98.20;;;;;;5014803;28;20060;-67
2023/03/31 04:10:19;;;;;;;11.60;4.70;;;12.30;98.20;;;;;;5015015;28;20018;-67
2023/03/31 04:12:44;;;;;;;10.77;4.72;;;12.40;98.20;;;;;;5014735;28;20030;-67
2023/03/31 04:15:10;;;;;;;9.68;4.55;;;12.30;98.20;;;;;;5014921;28;20022;-67
2023/03/31 04:17:36;;;;;;;8.75;4.28;;;12.30;98.50;;;;;;5014358;28;20109;-67
2023/03/31 04:20:08;;;;;;;11.88;5.03;;;12.30;98.30;;;;;;5013189;28;20057;-67
2023/03/31 04:22:39;;;;;;;9.65;4.57;;;12.30;98.40;;;;;;5014258;28;20040;-67
2023/03/31 04:25:13;;;;;;;11.07;5.28;;;12.30;98.40;;;;;;5014273;28;20045;-67
2023/03/31 04:27:45;;;;;;;17.10;6.35;;;12.30;98.40;;;;;;5014245;28;20404;-67
2023/03/31 04:30:21;;;;;;;9.23;4.70;;;12.30;98.40;;;;;;5014433;28;20053;-67
2023/03/31 04:32:49;;;;;;;8.95;5.03;;;12.30;98.40;;;;;;5014091;28;20017;-67
2023/03/31 04:35:16;;;;;;;10.90;4.78;;;12.30;98.40;;;;;;5014135;28;20061;-67
2023/03/31 04:37:43;;;;;;;8.23;4.95;;;12.30;98.40;;;;;;5014288;28;20030;-67
2023/03/31 04:40:09;;;;;;;9.45;4.50;;;12.30;98.40;;;;;;5014044;28;20539;-67
2023/03/31 04:42:35;;;;;;;11.48;4.47;;;12.30;98.40;;;;;;5013876;28;20026;-67
2023/03/31 04:45:02;;;;;;;9.73;4.03;;;12.30;98.30;;;;;;5014043;28;20022;-67
2023/03/31 04:47:27;;;;;;;7.30;3.80;;;12.30;98.30;;;;;;5013891;28;20029;-67
2023/03/31 04:49:53;;;;;;;9.23;4.72;;;12.30;98.10;;;;;;5013712;28;20046;-67
2023/03/31 04:52:19;;;;;;;10.45;4.22;;;12.30;98.10;;;;;;5012650;28;20022;-67
2023/03/31 04:54:45;;;;;;;11.15;5.03;;;12.30;98.10;;;;;;5013939;28;20084;-68
2023/03/31 04:57:11;;;;;;;11.63;4.32;;;12.20;98.20;;;;;;5013789;28;20018;-67
2023/03/31 04:59:37;;;;;;;9.80;4.43;;;12.20;98.20;;;;;;5013482;28;20040;-67
2023/03/31 05:02:02;;;;;;;11.65;4.20;;;12.20;98.20;;;;;;5013486;28;20052;-67
2023/03/31 05:04:28;;;;;;;9.45;4.38;;;12.20;98.20;;;;;;5013568;28;20121;-67
2023/03/31 05:06:54;;;;;;;8.63;4.47;;;12.20;98.20;;;;;;5013457;28;20029;-67
2023/03/31 05:09:20;;;;;;;8.43;4.63;;;12.20;98.20;;;;;;5013491;28;20096;-68
2023/03/31 05:11:46;;;;;;;14.25;5.25;;;12.20;98.30;;;;;;5013550;28;20030;-67
2023/03/31 05:14:12;;;;;;;8.40;4.05;;;12.20;98.30;;;;;;5012702;28;20029;-67
2023/03/31 05:16:38;;;;;;;12.18;4.63;;;12.20;98.40;;;;;;5013021;28;20495;-67
2023/03/31 05:19:03;;;;;;;10.52;4.05;;;12.20;98.40;;;;;;5013232;28;20029;-67
2023/03/31 05:21:30;;;;;;;9.32;4.50;;;12.20;98.30;;;;;;5012968;28;20040;-67
2023/03/31 05:23:56;;;;;;;13.10;5.10;;;12.20;98.30;;;;;;5011209;28;20461;-67
2023/03/31 05:26:24;;;;;;;9.82;4.25;;;12.20;98.20;;;;;;5012957;28;20037;-67
2023/03/31 05:28:53;;;;;;;11.13;4.45;;;12.10;98.20;;;;;;5013379;28;20066;-67
2023/03/31 05:31:19;;;;;;;9.38;5.03;;;12.20;98.20;;;;;;5013689;28;20030;-67
2023/03/31 05:33:45;;;;;;;16.33;5.40;;;12.20;98.20;;;;;;5012424;28;20030;-67
2023/03/31 05:36:12;;;;;;;10.93;4.97;;;12.20;98.30;;;;;;5012731;28;20504;-67
2023/03/31 05:38:39;;;;;;;11.65;5.10;;;12.20;98.30;;;;;;5012624;28;20026;-67
2023/03/31 05:41:07;;;;;;;12.35;5.00;;;12.20;98.40;;;;;;5012601;28;20092;-67
2023/03/31 05:43:32;;;;;;;12.85;5.00;;;12.20;98.40;;;;;;5012692;28;20037;-66
2023/03/31 05:45:58;;;;;;;13.35;5.25;;;12.20;98.40;;;;;;5013392;28;20049;-66
2023/03/31 05:48:24;;;;;;;14.85;5.53;;;12.20;98.40;;;;;;5013545;28;20026;-66
2023/03/31 05:50:50;;;;;;;11.75;5.85;;;12.20;98.40;;;;;;5013300;28;20054;-67
2023/03/31 05:53:15;;;;;;;13.48;5.43;;;12.20;98.40;;;;;;5012997;28;20034;-66
2023/03/31 05:55:41;;;;;;;11.93;5.47;;;12.30;98.40;;;;;;5012416;28;20029;-67
2023/03/31 05:58:07;;;;;;;10.93;5.25;;;12.30;98.40;;;;;;5012902;28;20065;-66
2023/03/31 06:00:35;;;;;;;13.15;5.07;;;12.30;98.40;;;;;;5013031;28;20093;-67
2023/03/31 06:03:00;;;;;;;11.32;4.72;;;12.30;98.40;;;;;;5012899;28;20038;-67
2023/03/31 06:05:29;;;;;;;13.45;5.40;;;12.30;98.40;;;;;;5013001;28;20053;-67
2023/03/31 06:07:55;;;;;;;14.13;5.03;;;12.30;98.40;;;;;;5011241;28;20049;-67
2023/03/31 06:10:21;;;;;;;14.93;5.13;;;12.30;98.40;;;;;;5010099;28;20026;-67
2023/03/31 06:12:47;;;;;;;15.05;5.10;;;12.30;98.40;;;;;;4998646;28;20064;-67
2023/03/31 06:15:12;;;;;;;15.65;4.75;;;12.30;98.50;;;;;;4991814;28;20031;-66
2023/03/31 06:17:38;;;;;;;13.52;4.65;;;12.30;98.50;;;;;;4987443;28;20054;-67
2023/03/31 06:20:05;;;;;;;10.07;4.82;;;12.30;98.60;;;;;;4991563;28;20185;-68
2023/03/31 06:22:31;;;;;;;15.10;7.10;;;12.30;98.70;;;;;;4992720;28;20035;-66
2023/03/31 06:24:57;;;;;;;17.85;7.18;;;12.40;98.80;;;;;;4992600;28;20022;-66
2023/03/31 06:27:23;;;;;;;18.90;8.38;;;12.30;98.80;;;;;;4994930;28;20030;-67
2023/03/31 06:29:49;;;;;;;15.00;7.55;;;12.30;99.00;;;;;;4996543;28;20418;-67
2023/03/31 06:32:15;;;;;;;13.48;7.63;;;12.30;99.10;;;;;;4996279;28;20026;-66
2023/03/31 06:34:40;;;;;;;16.70;7.57;;;12.30;99.10;;;;;;4996396;28;20431;-68
2023/03/31 06:37:06;;;;;;;15.25;7.65;;;12.30;99.10;;;;;;4996311;28;20104;-66
2023/03/31 06:39:32;;;;;;;21.73;7.53;;;12.40;99.10;;;;;;4996070;28;20529;-67
2023/03/31 06:41:58;;;;;;;17.60;7.88;;;12.40;99.10;;;;;;4995799;28;20026;-66
2023/03/31 06:44:25;;;;;;;13.38;7.20;;;12.40;99.10;;;;;;4996130;28;20023;-70
2023/03/31 06:46:51;;;;;;;16.45;7.10;;;12.40;99.00;;;;;;4996435;28;20018;-67
2023/03/31 06:49:17;;;;;;;20.95;7.68;;;12.40;99.00;;;;;;4996011;28;20497;-67
2023/03/31 06:51:43;;;;;;;19.15;6.85;;;12.50;99.00;;;;;;4996014;28;20074;-71
2023/03/31 06:54:09;;;;;;;17.15;7.60;;;12.40;98.90;;;;;;4996299;28;20414;-71
2023/03/31 06:56:34;;;;;;;21.40;7.18;;;12.50;99.00;;;;;;4995679;28;20019;-68
2023/03/31 06:59:00;;;;;;;11.95;7.22;;;12.50;98.90;;;;;;4995982;28;20022;-66
2023/03/31 07:01:26;;;;;;;17.42;7.35;;;12.50;98.90;;;;;;4941210;28;20069;-68
2023/03/31 07:03:52;;;;;;;14.43;7.03;;;12.50;98.90;;;;;;4995724;28;20031;-67
2023/03/31 07:06:17;;;;;;;12.30;6.82;;;12.50;98.80;;;;;;4996052;28;20061;-67
2023/03/31 07:08:43;;;;;;;16.55;8.07;;;12.50;98.80;;;;;;4995773;28;20081;-67
2023/03/31 07:11:09;;;;;;;17.02;7.20;;;12.50;98.80;;;;;;4995811;28;20029;-67
2023/03/31 07:13:35;;;;;;;17.00;7.25;;;12.50;98.80;;;;;;4996020;28;20040;-67
2023/03/31 07:16:00;;;;;;;21.30;8.02;;;12.60;98.80;;;;;;4996268;28;20026;-67
2023/03/31 07:18:30;;;;;;;15.48;6.60;;;12.60;98.80;;;;;;4995586;28;20037;-67
2023/03/31 07:20:58;;;;;;;15.20;6.28;;;12.60;98.80;;;;;;4996323;28;20069;-67
2023/03/31 07:23:23;;;;;;;16.30;7.13;;;12.60;98.70;;;;;;4995598;28;20077;-67
2023/03/31 07:25:49;;;;;;;16.40;7.40;;;12.60;98.70;;;;;;4995643;28;20042;-67
2023/03/31 07:28:15;;;;;;;13.75;7.20;;;12.70;98.70;;;;;;4995545;28;20101;-67
2023/03/31 07:30:41;;;;;;;16.58;7.53;;;12.70;98.70;;;;;;4995216;28;20023;-66
2023/03/31 07:33:08;;;;;;;18.73;7.35;;;12.70;98.70;;;;;;4995376;28;20482;-67
2023/03/31 07:35:37;;;;;;;15.35;7.70;;;12.70;98.70;;;;;;4995224;28;20624;-69
2023/03/31 07:38:03;;;;;;;22.30;8.65;;;12.70;98.60;;;;;;4994337;28;20026;-66
2023/03/31 07:40:29;;;;;;;16.33;8.35;;;12.70;98.60;;;;;;4992844;28;20026;-66
2023/03/31 07:42:55;;;;;;;20.20;8.35;;;12.70;98.60;;;;;;4994688;28;20373;-67
2023/03/31 07:45:23;;;;;;;18.38;8.02;;;12.70;98.60;;;;;;4993945;28;20023;-68
2023/03/31 07:47:50;;;;;;;22.15;8.93;;;12.70;98.60;;;;;;4995356;28;20026;-67
2023/03/31 07:50:16;;;;;;;16.20;8.18;;;12.70;98.50;;;;;;4995116;28;20043;-67
2023/03/31 07:52:43;;;;;;;16.73;8.23;;;12.70;98.50;;;;;;4995208;28;20030;-67
2023/03/31 07:55:10;;;;;;;23.20;8.60;;;12.70;98.40;;;;;;4994715;28;20382;-67
2023/03/31 07:57:36;;;;;;;18.50;7.85;;;12.80;98.70;;;;;;5014372;28;20540;-66
2023/03/31 08:00:07;;;;;;;19.40;7.70;;;12.80;98.40;;;;;;5014180;28;20384;-65
2023/03/31 08:02:36;;;;;;;20.15;8.43;;;12.80;98.30;;;;;;5014421;28;20041;-70
2023/03/31 08:05:07;;;;;;;21.35;7.85;;;12.80;98.40;;;;;;5014467;28;20030;-66
2023/03/31 08:07:37;;;;;;;24.42;7.75;;;12.80;98.30;;;;;;5014203;28;20458;-67
2023/03/31 08:10:08;;;;;;;19.30;7.97;;;12.80;98.20;;;;;;5014444;28;20053;-67
2023/03/31 08:12:34;;;;;;;17.88;6.90;;;12.80;98.30;;;;;;5014466;28;20500;-66
2023/03/31 08:15:00;;;;;;;18.20;6.63;;;12.80;98.30;;;;;;5014293;28;20057;-67
2023/03/31 08:17:26;;;;;;;17.85;5.70;;;12.80;98.30;;;;;;5014395;28;20026;-67
2023/03/31 08:19:52;;;;;;;16.85;5.07;;;12.90;98.40;;;;;;5014566;28;20077;-67
2023/03/31 08:22:18;;;;;;;19.42;5.47;;;12.90;97.80;;;;;;5014138;28;20367;-66
2023/03/31 08:24:43;;;;;;;21.40;5.93;;;12.90;97.80;;;;;;5014271;28;20026;-67
2023/03/31 08:27:09;;;;;;;21.50;6.15;;;12.90;97.90;;;;;;5014245;28;20033;-66
2023/03/31 08:29:35;;;;;;;14.40;5.30;;;12.90;98.30;;;;;;5014376;28;20057;-66
2023/03/31 08:32:01;;;;;;;23.38;5.57;;;12.90;98.30;;;;;;5014308;28;20025;-67
2023/03/31 08:34:27;;;;;;;23.80;5.65;;;12.90;98.30;;;;;;5014104;28;20462;-67
2023/03/31 08:36:52;;;;;;;25.08;6.38;;;12.90;98.30;;;;;;5014146;28;20041;-67
2023/03/31 08:39:18;;;;;;;20.88;7.95;;;12.90;98.50;;;;;;5013930;28;20022;-67
2023/03/31 08:42:00;;;;;;;29.20;7.57;;;12.90;98.80;;;;;;5014005;28;20100;-68
2023/03/31 08:44:41;;;;;;;30.25;9.38;;;12.90;99.20;;;;;;5014129;28;20398;-67
2023/03/31 08:47:17;;;;;;;27.50;10.90;;;12.90;99.50;;;;;;5013766;28;20133;-67
2023/03/31 08:49:47;;;;;;;33.55;10.35;;;12.90;99.50;;;;;;5012925;28;20465;-67
2023/03/31 08:52:18;;;;;;;29.90;9.18;;;12.90;99.60;;;;;;5013649;28;20034;-67
2023/03/31 08:54:50;;;;;;;23.05;8.48;;;12.90;99.90;;;;;;5013635;28;20034;-67
2023/03/31 08:57:29;;;;;;;;;;;12.90;99.90;;;;;;5014152;28;20362;-67
2023/03/31 08:59:57;;;;;;;24.38;8.38;;;12.90;99.90;;;;;;5013795;28;19937;-67
2023/03/31 09:02:26;;;;;;;20.52;6.80;;;12.90;99.90;;;;;;5013221;28;20367;-67
2023/03/31 09:05:29;;;;;;;18.00;7.32;;;12.90;99.90;;;;;;5011344;28;20100;-67
2023/03/31 09:08:32;;;;;;;22.65;8.50;;;12.90;99.90;;;;;;5012280;28;20392;-67
2023/03/31 09:11:22;;;;;;;19.25;8.05;;;12.90;99.90;;;;;;5013592;28;20046;-68
2023/03/31 09:14:12;;;;;;;20.02;9.75;;;12.90;99.90;;;;;;5013733;28;20030;-68
2023/03/31 09:16:47;;;;;;;22.92;9.95;;;12.90;99.90;;;;;;5013554;28;20018;-67
2023/03/31 09:19:24;;;;;;;24.40;9.57;;;12.90;99.90;;;;;;5013528;28;20026;-68
2023/03/31 09:21:54;;;;;;;26.45;9.85;;;12.90;99.90;;;;;;5013521;28;20030;-68
2023/03/31 09:24:26;;;;;;;24.17;9.45;;;12.90;99.90;;;;;;5013273;28;20473;-67
2023/03/31 09:26:57;;;;;;;23.30;8.50;;;13.00;99.90;;;;;;5013180;28;20351;-68
2023/03/31 09:29:28;;;;;;;22.45;7.68;;;13.00;99.90;;;;;;5012955;28;20170;-68
2023/03/31 09:32:00;;;;;;;27.27;8.63;;;13.00;99.90;;;;;;5011998;28;20022;-68
2023/03/31 09:34:30;;;;;;;18.25;7.88;;;13.00;99.90;;;;;;5013317;28;20034;-67
2023/03/31 09:36:56;;;;;;;20.52;8.13;;;13.00;99.90;;;;;;5012441;28;20473;-67
2023/03/31 09:39:22;;;;;;;24.95;9.23;;;13.00;99.90;;;;;;5012675;28;20029;-67
2023/03/31 09:41:49;;;;;;;19.05;8.48;;;13.00;99.90;;;;;;5013185;28;20030;-68
2023/03/31 09:44:30;;;;;;;24.00;7.63;;;13.00;99.90;;;;;;5012964;28;20069;-67
2023/03/31 09:46:56;;;;;;;24.83;8.90;;;13.10;99.90;;;;;;5013206;28;20104;-68
2023/03/31 09:49:27;;;;;;;20.02;8.00;;;13.10;99.90;;;;;;5012453;28;20025;-68
2023/03/31 09:52:12;;;;;;;26.42;8.45;;;13.10;99.90;;;;;;5012998;28;20393;-67
2023/03/31 09:54:47;;;;;;;15.43;7.82;;;13.20;99.90;;;;;;5012931;28;20030;-67
2023/03/31 09:57:33;;;;;;;16.77;7.90;;;13.20;99.90;;;;;;5013086;28;20072;-67
2023/03/31 10:00:20;;;;;;;21.55;8.13;;;13.10;99.90;;;;;;5012942;28;20030;-67
2023/03/31 10:02:50;;;;;;;22.02;9.05;;;13.20;99.90;;;;;;5017048;28;20034;-68
2023/03/31 10:05:29;;;;;;;24.70;8.35;;;13.20;99.90;;;;;;5015993;28;20136;-68
2023/03/31 10:08:31;;;;;;;21.33;8.77;;;13.20;99.90;;;;;;5016838;28;20052;-67
2023/03/31 10:11:08;;;;;;;22.38;8.82;;;13.20;99.90;;;;;;5015442;28;20080;-68
2023/03/31 10:13:46;;;;;;;21.95;8.40;;;13.20;99.90;;;;;;5016715;28;20026;-67
2023/03/31 10:16:29;;;;;;;33.90;10.30;;;13.20;99.90;;;;;;5016709;28;20027;-67
2023/03/31 10:19:31;;;;;;;21.90;8.25;;;13.20;99.90;;;;;;5016662;28;20030;-68
2023/03/31 10:22:00;;;;;;;22.70;9.80;;;13.30;99.90;;;;;;5016628;28;20485;-67
2023/03/31 10:24:37;;;;;;;26.75;10.65;;;13.30;99.90;;;;;;5016569;28;20473;-67
2023/03/31 10:27:06;;;;;;;21.83;9.57;;;13.30;99.90;;;;;;5016715;28;20656;-68
2023/03/31 10:29:33;;;;;;;21.00;9.07;;;13.30;99.90;;;;;;5016675;28;20069;-67
2023/03/31 10:32:29;;;;;;;22.48;9.65;;;13.30;99.90;;;;;;5016692;28;20033;-67
2023/03/31 10:34:57;;;;;;;19.30;9.70;;;13.30;99.90;;;;;;5014804;28;20048;-68
2023/03/31 10:37:27;;;;;;;20.38;10.38;;;13.30;99.90;;;;;;5016404;28;20038;-67
2023/03/31 10:40:20;;;;;;;16.73;8.82;;;13.30;99.90;;;;;;5016577;28;20022;-67
2023/03/31 10:42:57;;;;;;;21.83;11.05;;;13.40;99.90;;;;;;5013758;28;20505;-68
2023/03/31 10:45:24;;;;;;;28.25;11.68;;;13.40;99.90;;;;;;5016082;28;20182;-67
2023/03/31 10:47:57;;;;;;;25.83;11.85;;;13.40;99.90;;;;;;5014533;28;20421;-66
2023/03/31 10:50:33;;;;;;;22.85;13.02;;;13.30;99.90;;;;;;5015518;28;20525;-68
2023/03/31 10:53:10;;;;;;;25.30;15.00;;;13.40;99.90;;;;;;5015868;28;20063;-67
2023/03/31 10:55:44;;;;;;;26.17;15.25;;;13.30;99.90;;;;;;5014964;28;20026;-67
2023/03/31 10:58:16;;;;;;;29.95;15.60;;;13.30;99.90;;;;;;5015855;28;20021;-67
2023/03/31 11:01:03;;;;;;;29.50;15.48;;;13.30;99.90;;;;;;5015846;28;20060;-67
2023/03/31 11:03:31;;;;;;;31.92;17.08;;;13.30;99.90;;;;;;5015775;28;20034;-67
2023/03/31 11:06:26;;;;;;;28.48;16.35;;;13.30;99.90;;;;;;5015706;28;20018;-67
2023/03/31 11:09:08;;;;;;;29.98;16.98;;;13.30;99.90;;;;;;5015476;28;20038;-68
2023/03/31 11:11:54;;;;;;;32.13;18.05;;;13.30;99.90;;;;;;5015567;28;20497;-67
2023/03/31 11:14:32;;;;;;;33.55;19.95;;;13.30;99.90;;;;;;5012851;28;20029;-67
2023/03/31 11:17:21;;;;;;;32.80;16.92;;;13.30;99.90;;;;;;5012280;28;20037;-68
2023/03/31 11:20:15;;;;;;;25.98;17.75;;;13.30;99.90;;;;;;5013672;28;20496;-67
2023/03/31 11:23:09;;;;;;;32.10;16.80;;;13.30;99.70;;;;;;5015042;28;20050;-67
2023/03/31 11:25:42;;;;;;;27.88;16.25;;;13.30;99.60;;;;;;5014671;28;20022;-67
2023/03/31 11:28:39;;;;;;;25.98;17.85;;;13.30;99.60;;;;;;5014738;28;20026;-68
2023/03/31 11:31:30;;;;;;;28.00;16.05;;;13.30;99.60;;;;;;5014840;28;20022;-67
2023/03/31 11:33:59;;;;;;;25.50;11.93;;;13.30;99.30;;;;;;5014462;28;20072;-68
2023/03/31 11:36:58;;;;;;;20.13;11.77;;;13.30;98.90;;;;;;5012954;28;20034;-67
2023/03/31 11:39:37;;;;;;;25.77;12.27;;;13.30;98.50;;;;;;5014337;28;20030;-67
2023/03/31 11:43:01;;;;;;;25.00;11.38;;;13.30;98.40;;;;;;5014546;28;20765;-67
2023/03/31 11:45:46;;;;;;;21.45;11.13;;;13.30;98.20;;;;;;4992494;28;20069;-67
2023/03/31 11:48:37;;;;;;;20.20;10.68;;;13.30;98.20;;;;;;4993116;28;20618;-66
2023/03/31 11:51:10;;;;;;;22.33;9.32;;;13.20;98.10;;;;;;5012367;28;20087;-67
2023/03/31 11:53:38;;;;;;;21.63;9.43;;;13.30;98.10;;;;;;5014493;28;20413;-67
2023/03/31 11:56:07;;;;;;;23.70;9.15;;;13.30;97.90;;;;;;5013019;28;20459;-67
2023/03/31 11:58:59;;;;;;;22.25;8.73;;;13.30;97.80;;;;;;5013842;28;20034;-67
2023/03/31 12:01:57;;;;;;;21.23;8.88;;;13.30;97.70;;;;;;5013762;28;20441;-67
2023/03/31 12:04:33;;;;;;;17.45;7.60;;;13.30;97.50;;;;;;5001733;28;20050;-67
2023/03/31 12:07:30;;;;;;;20.27;7.45;;;13.30;97.50;;;;;;5014128;28;20026;-67
2023/03/31 12:10:10;;;;;;;25.88;7.57;;;13.30;97.50;;;;;;5007010;28;20507;-68
2023/03/31 12:12:43;;;;;;;26.35;7.57;;;13.30;97.80;;;;;;5014372;28;20073;-67
2023/03/31 12:15:15;;;;;;;;;;;13.30;97.50;;;;;;5013357;28;20049;-67
2023/03/31 12:17:48;;;;;;;21.92;6.43;;;13.30;97.50;;;;;;5011746;28;19916;-68
2023/03/31 12:20:28;;;;;;;17.17;6.55;;;13.30;97.30;;;;;;5012629;28;20026;-67
2023/03/31 12:22:56;;;;;;;22.75;7.40;;;13.30;97.30;;;;;;5014381;28;20124;-68
2023/03/31 12:25:25;;;;;;;16.02;6.05;;;13.30;97.40;;;;;;5014280;28;20427;-67
2023/03/31 12:27:53;;;;;;;14.63;5.93;;;13.30;97.50;;;;;;5014352;28;20116;-68
2023/03/31 12:30:33;;;;;;;19.10;5.65;;;13.30;97.40;;;;;;5014541;28;20101;-68
2023/03/31 12:33:12;;;;;;;15.38;5.18;;;13.30;97.40;;;;;;5014524;28;20359;-67
2023/03/31 12:36:17;;;;;;;22.15;5.55;;;13.30;97.30;;;;;;5014323;28;20082;-67
2023/03/31 12:38:52;;;;;;;21.35;4.82;;;13.30;97.40;;;;;;5014209;28;20048;-67
2023/03/31 12:41:31;;;;;;;17.88;4.88;;;13.30;97.30;;;;;;5014087;28;20034;-67
2023/03/31 12:44:28;;;;;;;25.17;4.82;;;13.30;97.30;;;;;;5013788;28;20083;-67
2023/03/31 12:46:54;;;;;;;18.58;4.82;;;13.40;97.20;;;;;;5013838;28;20030;-67
2023/03/31 12:49:32;;;;;;;22.02;4.72;;;13.30;97.20;;;;;;5014126;28;20555;-67
2023/03/31 12:52:10;;;;;;;19.95;4.85;;;13.30;97.30;;;;;;5013827;28;20041;-67
2023/03/31 12:55:01;;;;;;;15.52;3.90;;;13.30;97.40;;;;;;5014009;28;20473;-67
2023/03/31 12:57:27;;;;;;;21.35;4.68;;;13.30;97.30;;;;;;5013895;28;20026;-67
2023/03/31 13:00:15;;;;;;;19.73;4.43;;;13.30;97.30;;;;;;5013792;28;20028;-67
2023/03/31 13:02:42;;;;;;;18.25;4.78;;;13.30;97.30;;;;;;5012362;28;20038;-68
2023/03/31 13:05:39;;;;;;;21.35;3.95;;;13.40;97.30;;;;;;5013621;28;20496;-68